Time;durP1;ratioP1;P1;durP2;ratioP2;P2;SDS_P1;SDS_P2;PMS_P1;PMS_P2;Temp;Humidity;BMP_temperature;BMP_pressure;BME280_temperature;BME280_humidity;BME280_pressure;Samples;Min_cycle;Max_cycle;Signal;HPM_P1;HPM_P2
2021/08/14 00:04:53;;;;;;;14.23;7.93;;;;;;;19.68;77.04;101002.66;20748594;28;20046;-71
2021/08/14 00:14:55;;;;;;;11.88;7.53;;;;;;;19.54;78.86;101005.88;20746700;28;20049;-71
2021/08/14 00:24:57;;;;;;;11.98;7.45;;;;;;;19.44;79.17;101010.72;20746306;28;20052;-70
2021/08/14 00:34:59;;;;;;;12.38;8.27;;;;;;;19.39;78.97;100991.47;20745688;28;20053;-71
2021/08/14 00:45:01;;;;;;;11.52;8.32;;;;;;;19.29;79.95;101006.06;20744254;28;20064;-71
2021/08/14 00:55:04;;;;;;;13.88;8.82;;;;;;;19.10;81.25;101003.31;20742556;28;20050;-70
2021/08/14 01:05:06;;;;;;;13.02;8.25;;;;;;;19.03;80.80;100996.56;20741870;28;20481;-70
2021/08/14 01:15:08;;;;;;;12.15;8.68;;;;;;;18.94;80.88;100989.81;20741914;28;20089;-71
2021/08/14 01:25:11;;;;;;;12.35;8.60;;;;;;;18.80;81.08;100976.25;20741638;28;20080;-70
2021/08/14 01:35:13;;;;;;;12.73;8.77;;;;;;;18.70;81.48;100985.50;20740416;28;20042;-70
2021/08/14 01:45:15;;;;;;;15.27;9.07;;;;;;;18.57;82.46;100982.44;20740511;28;20050;-71
2021/08/14 01:55:17;;;;;;;14.15;9.57;;;;;;;18.19;82.79;100983.94;20738930;28;20058;-70
2021/08/14 02:05:18;;;;;;;11.65;8.48;;;;;;;18.07;83.92;100969.38;20737893;28;20500;-70
2021/08/14 02:15:20;;;;;;;12.90;8.20;;;;;;;18.11;83.41;100981.59;20736918;28;20092;-70
2021/08/14 02:25:22;;;;;;;12.60;9.02;;;;;;;18.03;83.60;100974.84;20737160;28;20060;-70
2021/08/14 02:35:24;;;;;;;15.57;9.18;;;;;;;17.90;83.21;100958.53;20736039;28;20046;-70
2021/08/14 02:45:26;;;;;;;15.00;8.85;;;;;;;17.81;83.28;100961.50;20737083;28;20172;-70
2021/08/14 02:55:28;;;;;;;13.52;9.30;;;;;;;17.72;83.75;100983.84;20736332;28;20042;-71
2021/08/14 03:05:30;;;;;;;12.95;8.20;;;;;;;17.56;83.63;100978.25;20735271;28;20492;-70
2021/08/14 03:15:32;;;;;;;14.43;8.82;;;;;;;17.46;83.47;100976.00;20735206;28;20046;-70
2021/08/14 03:25:34;;;;;;;12.60;8.60;;;;;;;17.37;83.68;100971.88;20735004;28;20050;-71
2021/08/14 03:35:36;;;;;;;11.48;8.75;;;;;;;17.36;84.08;100967.50;20734102;28;20049;-70
2021/08/14 03:45:38;;;;;;;12.40;9.45;;;;;;;17.38;83.49;100963.00;20723138;28;20492;-71
2021/08/14 03:55:40;;;;;;;12.52;9.10;;;;;;;17.38;83.51;100952.41;20746208;28;20133;-70
2021/08/14 04:05:42;;;;;;;12.63;8.65;;;;;;;17.31;83.45;100950.91;20746718;28;20046;-70
2021/08/14 04:15:44;;;;;;;15.02;9.65;;;;;;;17.28;84.77;100956.31;20746327;28;20554;-71
2021/08/14 04:25:46;;;;;;;15.23;9.15;;;;;;;17.22;84.09;100959.19;20746520;28;20550;-70
2021/08/14 04:35:49;;;;;;;12.10;9.05;;;;;;;17.13;83.85;100961.22;20747205;28;20042;-70
2021/08/14 04:45:51;;;;;;;16.50;8.98;;;;;;;17.02;84.02;100960.72;20744986;28;20459;-70
2021/08/14 04:55:52;;;;;;;12.30;8.95;;;;;;;17.22;83.34;100962.69;20743071;28;20452;-70
2021/08/14 05:05:54;;;;;;;14.52;8.90;;;;;;;17.34;83.24;100970.22;20742322;28;20038;-70
2021/08/14 05:15:56;;;;;;;13.40;9.13;;;;;;;17.47;82.75;100970.63;20742600;28;20046;-70
2021/08/14 05:25:58;;;;;;;12.88;9.13;;;;;;;17.89;81.83;100962.09;20740578;28;20133;-70
2021/08/14 05:36:00;;;;;;;13.57;9.45;;;;;;;18.27;81.83;100973.03;20739714;28;20423;-70
2021/08/14 05:46:02;;;;;;;14.25;10.00;;;;;;;18.55;83.38;100968.41;20737892;28;20484;-70
2021/08/14 05:56:04;;;;;;;20.58;11.88;;;;;;;18.76;81.92;100973.78;20739860;28;20452;-70
2021/08/14 06:06:08;;;;;;;19.75;12.50;;;;;;;18.98;82.20;100964.03;20738730;28;20504;-70
2021/08/14 06:16:12;;;;;;;16.70;11.87;;;;;;;19.19;81.68;100963.13;20738688;28;20429;-71
2021/08/14 06:26:14;;;;;;;16.92;10.93;;;;;;;19.50;79.62;100967.13;20738948;28;20046;-71
2021/08/14 06:36:16;;;;;;;14.02;10.73;;;;;;;19.77;79.80;100969.50;20737582;28;20073;-71
2021/08/14 06:46:19;;;;;;;18.33;11.20;;;;;;;20.01;77.87;100976.38;20737787;28;20093;-71
2021/08/14 06:56:21;;;;;;;13.68;9.98;;;;;;;20.25;78.90;100964.59;20737084;28;20053;-71
2021/08/14 07:06:25;;;;;;;19.63;10.43;;;;;;;20.57;78.11;100962.25;20717185;28;20045;-71
2021/08/14 07:16:27;;;;;;;17.30;10.60;;;;;;;20.70;75.20;100957.19;20686662;28;20062;-71
2021/08/14 07:26:28;;;;;;;15.35;9.77;;;;;;;21.04;74.26;100963.53;20736935;28;20065;-70
2021/08/14 07:36:30;;;;;;;15.20;9.85;;;;;;;21.20;71.61;100959.97;20745401;28;20034;-70
2021/08/14 07:46:33;;;;;;;12.20;8.32;;;;;;;21.62;72.20;100964.06;20671494;28;20077;-70
2021/08/14 07:56:34;;;;;;;11.20;7.50;;;;;;;21.94;69.23;100956.13;20670875;28;20049;-71
2021/08/14 08:06:36;;;;;;;11.98;7.43;;;;;;;22.42;67.78;100962.41;20668819;28;20109;-71
2021/08/14 08:16:37;;;;;;;12.00;6.65;;;;;;;22.67;65.31;100949.41;20724182;28;20491;-71
2021/08/14 08:26:39;;;;;;;9.32;5.90;;;;;;;22.98;64.16;100942.31;20744087;28;20050;-71
2021/08/14 08:36:41;;;;;;;11.02;6.22;;;;;;;23.30;63.61;100927.91;20746666;28;20046;-71
2021/08/14 08:46:46;;;;;;;11.50;6.50;;;;;;;23.71;61.05;100916.50;20746919;28;20053;-71
2021/08/14 08:56:48;;;;;;;11.52;6.68;;;;;;;23.96;59.32;100917.66;20746243;28;20045;-71
2021/08/14 09:06:50;;;;;;;10.73;6.03;;;;;;;24.67;56.41;100911.28;20741823;28;20049;-71
2021/08/14 09:17:24;;;;;;;11.23;6.55;;;;;;;24.73;56.27;100901.03;20744472;28;20052;-71
2021/08/14 09:27:26;;;;;;;12.65;6.13;;;;;;;25.41;54.00;100891.94;20729778;28;20112;-71
2021/08/14 09:37:36;;;;;;;11.65;5.60;;;;;;;25.80;53.76;100888.28;20741580;28;20459;-72
2021/08/14 09:47:38;;;;;;;10.63;6.05;;;;;;;26.18;51.99;100876.59;20741058;28;20100;-72
2021/08/14 09:57:41;;;;;;;8.30;5.43;;;;;;;26.44;52.13;100860.41;20740401;28;20046;-72
2021/08/14 10:07:43;;;;;;;8.23;4.80;;;;;;;26.93;47.01;100851.34;20738039;28;20041;-71
2021/08/14 10:17:44;;;;;;;8.30;5.28;;;;;;;27.42;49.02;100847.53;20673832;28;20061;-72
2021/08/14 10:27:56;;;;;;;8.70;5.60;;;;;;;27.42;47.92;100832.25;20656596;28;20046;-72
2021/08/14 10:37:58;;;;;;;10.13;6.25;;;;;;;27.61;47.56;100826.25;20655987;28;20646;-72
2021/08/14 10:48:04;;;;;;;14.45;6.15;;;;;;;27.79;46.25;100814.03;20655970;28;20081;-71
2021/08/14 10:58:19;;;;;;;14.35;6.25;;;;;;;27.87;48.69;100800.78;20667939;28;20046;-72
2021/08/14 11:08:29;;;;;;;10.55;5.25;;;;;;;28.23;45.88;100779.03;20671633;28;20105;-71
2021/08/14 11:18:52;;;;;;;10.70;5.72;;;;;;;28.49;45.99;100769.63;20741910;28;20054;-72
2021/08/14 11:28:54;;;;;;;9.30;5.53;;;;;;;28.36;44.69;100755.47;20751963;28;20499;-71
2021/08/14 11:39:01;;;;;;;12.47;5.50;;;;;;;28.56;45.53;100745.72;20749366;28;20072;-70
2021/08/14 11:49:03;;;;;;;11.43;6.00;;;;;;;28.64;42.89;100727.03;20749904;28;20334;-70
2021/08/14 11:59:06;;;;;;;9.73;5.60;;;;;;;28.62;40.30;100720.94;20748947;28;20645;-70
2021/08/14 12:09:08;;;;;;;8.57;4.78;;;;;;;28.31;40.20;100720.84;20747425;28;20492;-70
2021/08/14 12:19:17;;;;;;;8.00;5.60;;;;;;;28.87;40.77;100707.03;20653665;28;20054;-69
2021/08/14 12:29:22;;;;;;;10.18;5.88;;;;;;;28.84;43.34;100696.53;20666815;28;20392;-70
2021/08/14 12:39:51;;;;;;;10.70;6.43;;;;;;;28.67;43.85;100682.81;20666140;28;20049;-70
2021/08/14 12:50:15;;;;;;;10.45;6.03;;;;;;;28.77;44.29;100676.50;20665525;28;20129;-70
2021/08/14 13:00:16;;;;;;;9.13;6.78;;;;;;;28.93;45.29;100667.03;20645939;28;20125;-70
2021/08/14 13:10:19;;;;;;;8.88;6.55;;;;;;;29.29;43.37;100650.31;20667538;28;20045;-70
2021/08/14 13:20:25;;;;;;;8.45;6.10;;;;;;;28.78;44.05;100648.53;20741783;28;20054;-70
2021/08/14 13:30:27;;;;;;;8.63;6.45;;;;;;;28.79;44.93;100636.78;20741645;28;20050;-70
2021/08/14 13:40:29;;;;;;;9.98;6.70;;;;;;;28.79;45.17;100633.22;20744126;28;20057;-69
2021/08/14 13:50:30;;;;;;;11.43;6.80;;;;;;;28.93;44.49;100626.59;20769428;28;20046;-71
2021/08/14 14:00:32;;;;;;;14.82;6.57;;;;;;;29.10;45.39;100615.22;20748587;28;20068;-69
2021/08/14 14:10:34;;;;;;;14.67;6.40;;;;;;;29.49;43.22;100618.81;20733910;28;20047;-69
2021/08/14 14:20:38;;;;;;;10.93;6.10;;;;;;;30.11;42.85;100604.03;20658848;28;20046;-70
2021/08/14 14:30:44;;;;;;;9.32;5.88;;;;;;;29.73;42.70;100604.94;20658871;28;20050;-69
2021/08/14 14:40:45;;;;;;;9.07;6.25;;;;;;;29.78;42.18;100586.47;20658322;28;20093;-69
2021/08/14 14:50:47;;;;;;;10.55;6.28;;;;;;;29.42;43.27;100584.44;20658331;28;20046;-70
2021/08/14 15:00:51;;;;;;;9.20;6.22;;;;;;;29.55;41.26;100576.94;20640380;28;20508;-70
2021/08/14 15:10:55;;;;;;;10.05;6.20;;;;;;;29.93;41.33;100570.66;20655296;28;20047;-70
2021/08/14 15:20:57;;;;;;;11.10;6.43;;;;;;;29.73;41.93;100552.81;20655075;28;20051;-70
2021/08/14 15:30:59;;;;;;;9.45;5.97;;;;;;;30.37;41.45;100555.63;20654752;28;20124;-69
2021/08/14 15:41:01;;;;;;;9.37;5.67;;;;;;;29.78;42.22;100545.97;20658912;28;20053;-69
2021/08/14 15:51:03;;;;;;;9.00;6.20;;;;;;;29.88;42.39;100544.09;20669318;28;20104;-71
2021/08/14 16:01:05;;;;;;;8.57;5.70;;;;;;;29.81;42.27;100537.59;20668668;28;20394;-69
2021/08/14 16:11:08;;;;;;;9.03;6.17;;;;;;;29.79;43.71;100528.78;20678656;28;20152;-70
2021/08/14 16:21:10;;;;;;;9.20;6.40;;;;;;;30.10;42.40;100525.88;20749067;28;20050;-70
2021/08/14 16:31:13;;;;;;;10.63;6.10;;;;;;;29.99;42.31;100508.00;20747116;28;20076;-70
2021/08/14 16:41:15;;;;;;;13.57;6.07;;;;;;;29.99;41.90;100504.44;20746333;28;20058;-69
2021/08/14 16:51:16;;;;;;;9.10;5.82;;;;;;;30.06;41.52;100516.34;20745014;28;20104;-70
2021/08/14 17:01:18;;;;;;;7.45;5.63;;;;;;;29.89;41.96;100508.00;20744817;28;20100;-69
2021/08/14 17:11:20;;;;;;;9.80;6.00;;;;;;;29.84;42.82;100504.88;20731581;28;20133;-69
2021/08/14 17:21:22;;;;;;;8.90;5.57;;;;;;;29.77;42.59;100503.78;20662732;28;20105;-69
2021/08/14 17:31:25;;;;;;;9.00;5.70;;;;;;;29.79;42.92;100504.47;20661846;28;20049;-70
2021/08/14 17:41:27;;;;;;;8.90;6.05;;;;;;;29.43;44.74;100502.53;20660816;28;20038;-70
2021/08/14 17:51:29;;;;;;;9.52;6.70;;;;;;;29.15;45.99;100502.38;20719427;28;20104;-70
2021/08/14 18:01:31;;;;;;;16.10;8.98;;;;;;;28.81;47.31;100489.28;20743087;28;20046;-70
2021/08/14 18:11:32;;;;;;;9.43;6.25;;;;;;;28.47;48.57;100491.47;20719295;28;20468;-70
2021/08/14 18:21:39;;;;;;;8.70;6.43;;;;;;;27.91;50.41;100481.13;20727588;28;20054;-70
2021/08/14 18:31:41;;;;;;;11.55;7.63;;;;;;;27.24;53.83;100490.41;20737105;28;20065;-71
2021/08/14 18:41:43;;;;;;;10.35;6.88;;;;;;;26.54;57.94;100493.50;20657014;28;20050;-70
2021/08/14 18:51:44;;;;;;;11.20;6.60;;;;;;;25.95;61.52;100504.47;20655298;28;20042;-69
2021/08/14 19:01:46;;;;;;;10.13;7.25;;;;;;;25.53;62.84;100512.16;20654733;28;20046;-71
2021/08/14 19:11:49;;;;;;;11.48;7.03;;;;;;;24.99;63.76;100516.16;20671715;28;20733;-70
2021/08/14 19:21:50;;;;;;;12.63;6.93;;;;;;;24.73;63.46;100523.44;20751088;28;20455;-71
2021/08/14 19:31:52;;;;;;;10.75;7.68;;;;;;;24.78;59.98;100523.97;20751283;28;20045;-71
2021/08/14 19:41:56;;;;;;;12.57;6.97;;;;;;;24.56;62.32;100529.16;20750331;28;20085;-71
2021/08/14 19:51:57;;;;;;;11.23;6.90;;;;;;;24.09;64.46;100530.66;20750067;28;20046;-70
2021/08/14 20:02:00;;;;;;;9.50;6.70;;;;;;;23.84;64.76;100530.66;20748124;28;20053;-71
2021/08/14 20:12:04;;;;;;;14.07;8.47;;;;;;;23.60;65.81;100523.34;20729120;28;20052;-70
2021/08/14 20:22:05;;;;;;;12.05;7.35;;;;;;;23.38;66.57;100529.28;20666534;28;20305;-71
2021/08/14 20:32:09;;;;;;;11.85;7.53;;;;;;;23.14;66.51;100526.44;20664644;28;20097;-71
2021/08/14 20:42:11;;;;;;;13.23;7.30;;;;;;;23.03;67.17;100534.28;20738854;28;20041;-71
2021/08/14 20:52:13;;;;;;;11.80;7.53;;;;;;;23.02;68.24;100532.56;20744720;28;20100;-72
2021/08/14 21:02:15;;;;;;;11.90;8.07;;;;;;;22.77;70.77;100533.28;20744372;28;20050;-71
2021/08/14 21:12:17;;;;;;;14.95;8.65;;;;;;;22.47;70.78;100536.06;20742865;28;20389;-70
2021/08/14 21:22:18;;;;;;;13.52;9.75;;;;;;;22.44;71.10;100530.94;20742956;28;20050;-70
2021/08/14 21:32:20;;;;;;;15.00;10.15;;;;;;;22.37;71.86;100540.28;20742534;28;20049;-69
2021/08/14 21:42:23;;;;;;;13.50;10.30;;;;;;;22.24;71.87;100546.38;20741816;28;20050;-71
2021/08/14 21:52:24;;;;;;;19.58;10.55;;;;;;;22.20;71.20;100542.19;20741702;28;20046;-70
2021/08/14 22:02:26;;;;;;;18.00;12.15;;;;;;;22.08;72.31;100540.22;20740508;28;20088;-70
2021/08/14 22:12:28;;;;;;;16.50;11.48;;;;;;;21.90;73.78;100541.38;20739300;28;20665;-71
2021/08/14 22:22:30;;;;;;;14.68;10.60;;;;;;;21.63;75.58;100535.88;20740333;28;20050;-70
2021/08/14 22:32:32;;;;;;;16.42;11.00;;;;;;;21.44;76.68;100544.09;20758803;28;20392;-70
2021/08/14 22:42:34;;;;;;;11.95;9.73;;;;;;;21.32;75.97;100531.47;20727057;28;20507;-71
2021/08/14 22:52:36;;;;;;;13.60;9.75;;;;;;;21.05;77.09;100526.78;20736449;28;20054;-70
2021/08/14 23:02:38;;;;;;;14.68;10.35;;;;;;;20.82;77.57;100525.44;20720769;28;20069;-71
2021/08/14 23:12:41;;;;;;;14.38;10.00;;;;;;;20.67;78.54;100524.47;20737615;28;20056;-71
2021/08/14 23:22:43;;;;;;;13.98;10.07;;;;;;;20.55;77.78;100517.16;20737231;28;20455;-71
2021/08/14 23:32:45;;;;;;;15.45;11.10;;;;;;;20.29;79.35;100518.56;20735634;28;20050;-71
2021/08/14 23:42:47;;;;;;;13.80;10.30;;;;;;;20.24;78.66;100513.50;20736541;28;20049;-71
2021/08/14 23:52:51;;;;;;;15.57;10.02;;;;;;;20.00;79.97;100520.13;20735752;28;20042;-70
